createdAt,value
2022-12-08T00:00:03.848Z,101408.81
2022-12-08T00:03:15.936Z,101420.50
2022-12-08T00:07:02.559Z,101404.09
2022-12-08T00:10:39.621Z,101392.66
2022-12-08T00:13:32.876Z,101384.41
2022-12-08T00:16:37.204Z,101384.00
2022-12-08T00:19:42.775Z,101380.66
2022-12-08T00:22:47.379Z,101381.97
2022-12-08T00:25:51.758Z,101359.56
2022-12-08T00:28:56.023Z,101380.34
2022-12-08T00:32:00.341Z,101397.50
2022-12-08T00:35:05.294Z,101390.34
2022-12-08T00:38:09.986Z,101401.69
2022-12-08T00:41:17.236Z,101398.66
2022-12-08T00:44:22.374Z,101360.56
2022-12-08T00:47:26.881Z,101411.25
2022-12-08T00:50:31.096Z,101417.63
2022-12-08T00:53:35.432Z,101415.53
2022-12-08T00:56:39.868Z,101416.22
2022-12-08T00:59:44.188Z,101415.75
2022-12-08T01:02:48.771Z,101414.19
2022-12-08T01:05:53.138Z,101413.97
2022-12-08T01:08:57.415Z,101405.41
2022-12-08T01:12:02.179Z,101390.75
2022-12-08T01:15:07.057Z,101402.31
2022-12-08T01:18:11.520Z,101418.88
2022-12-08T01:21:16.091Z,101406.28
2022-12-08T01:24:22.325Z,101417.41
2022-12-08T01:27:26.713Z,101416.91
2022-12-08T01:30:31.195Z,101399.56
2022-12-08T01:33:35.574Z,101367.97
2022-12-08T01:36:40.332Z,101407.03
2022-12-08T01:39:44.864Z,101396.81
2022-12-08T01:42:50.229Z,101406.88
2022-12-08T01:45:54.777Z,101401.69
2022-12-08T01:49:10.096Z,101402.47
2022-12-08T01:52:34.920Z,101407.13
2022-12-08T01:56:11.060Z,101405.81
2022-12-08T01:59:15.491Z,101383.44
2022-12-08T02:02:20.070Z,101405.38
2022-12-08T02:05:28.125Z,101419.41
2022-12-08T02:08:34.343Z,101388.00
2022-12-08T02:11:38.476Z,101395.78
2022-12-08T02:14:42.861Z,101391.53
2022-12-08T02:18:20.951Z,101396.25
2022-12-08T02:21:38.296Z,101394.28
2022-12-08T02:24:45.459Z,101386.13
2022-12-08T02:28:01.945Z,101381.06
2022-12-08T02:31:18.604Z,101371.19
2022-12-08T02:34:38.704Z,101376.25
2022-12-08T02:37:47.844Z,101377.47
2022-12-08T02:41:29.089Z,101372.03
2022-12-08T02:44:47.067Z,101367.00
2022-12-08T02:47:52.860Z,101350.19
2022-12-08T02:50:57.430Z,101360.91
2022-12-08T02:54:03.178Z,101348.06
2022-12-08T02:57:28.007Z,101344.56
2022-12-08T03:00:46.516Z,101349.19
2022-12-08T03:04:02.847Z,101347.25
2022-12-08T03:07:23.907Z,101338.66
2022-12-08T03:10:37.697Z,101336.28
2022-12-08T03:13:46.255Z,101325.28
2022-12-08T03:16:54.984Z,101330.53
2022-12-08T03:20:04.651Z,101307.06
2022-12-08T03:23:13.412Z,101309.38
2022-12-08T03:26:40.274Z,101304.56
2022-12-08T03:29:45.054Z,101318.91
2022-12-08T03:33:18.619Z,101312.47
2022-12-08T03:36:24.321Z,101287.91
2022-12-08T03:39:28.708Z,101306.59
2022-12-08T03:42:33.201Z,101298.22
2022-12-08T03:45:37.643Z,101310.88
2022-12-08T03:48:41.942Z,101313.16
2022-12-08T03:51:46.629Z,101309.72
2022-12-08T03:54:51.091Z,101288.13
2022-12-08T03:57:55.419Z,101315.06
2022-12-08T04:00:59.907Z,101319.97
2022-12-08T04:04:04.249Z,101321.91
2022-12-08T04:07:08.751Z,101319.50
2022-12-08T04:10:13.942Z,101309.00
2022-12-08T04:13:18.274Z,101318.72
2022-12-08T04:16:25.565Z,101321.59
2022-12-08T04:19:30.103Z,101308.75
2022-12-08T04:22:34.515Z,101306.41
2022-12-08T04:25:39.633Z,101323.81
2022-12-08T04:28:44.336Z,101300.19
2022-12-08T04:31:48.942Z,101313.34
2022-12-08T04:34:53.192Z,101319.91
2022-12-08T04:37:57.757Z,101312.91
2022-12-08T04:41:02.695Z,101321.81
2022-12-08T04:44:07.093Z,101311.41
2022-12-08T04:47:11.436Z,101328.97
2022-12-08T04:50:15.935Z,101308.75
2022-12-08T04:53:20.914Z,101316.09
2022-12-08T04:56:25.101Z,101324.34
2022-12-08T04:59:29.381Z,101302.94
2022-12-08T05:02:33.788Z,101313.19
2022-12-08T05:05:38.400Z,101302.38
2022-12-08T05:08:44.164Z,101316.22
2022-12-08T05:11:49.284Z,101310.13
2022-12-08T05:14:53.989Z,101284.44
2022-12-08T05:17:58.389Z,101309.22
2022-12-08T05:21:05.039Z,101310.59
2022-12-08T05:24:09.964Z,101306.22
2022-12-08T05:27:14.459Z,101305.72
2022-12-08T05:30:18.838Z,101310.00
2022-12-08T05:33:23.129Z,101302.69
2022-12-08T05:36:27.623Z,101305.44
2022-12-08T05:39:32.202Z,101298.94
2022-12-08T05:42:36.666Z,101316.72
2022-12-08T05:45:42.380Z,101308.41
2022-12-08T05:48:47.120Z,101304.72
2022-12-08T05:51:51.867Z,101316.00
2022-12-08T05:54:56.188Z,101278.84
2022-12-08T05:58:06.109Z,101305.81
2022-12-08T06:01:26.525Z,101317.63
2022-12-08T06:04:30.786Z,101312.22
2022-12-08T06:07:36.224Z,101305.72
2022-12-08T06:10:44.915Z,101320.75
2022-12-08T06:13:49.883Z,101327.53
2022-12-08T06:16:54.580Z,101326.38
2022-12-08T06:19:58.949Z,101323.78
2022-12-08T06:23:04.331Z,101310.41
2022-12-08T06:26:10.595Z,101342.53
2022-12-08T06:29:15.143Z,101329.53
2022-12-08T06:32:24.367Z,101328.97
2022-12-08T06:35:31.655Z,101297.78
2022-12-08T06:38:39.298Z,101340.34
2022-12-08T06:42:05.865Z,101334.25
2022-12-08T06:45:11.089Z,101331.06
2022-12-08T06:48:15.483Z,101343.63
2022-12-08T06:51:23.717Z,101347.59
2022-12-08T06:54:28.603Z,101327.44
2022-12-08T06:57:32.822Z,101329.75
2022-12-08T07:00:37.151Z,101348.78
2022-12-08T07:03:44.421Z,101351.81
2022-12-08T07:06:49.028Z,101352.41
2022-12-08T07:09:53.437Z,101355.97
2022-12-08T07:12:58.054Z,101355.22
2022-12-08T07:16:02.394Z,101366.59
2022-12-08T07:19:07.562Z,101316.22
2022-12-08T07:22:12.258Z,101358.84
2022-12-08T07:25:16.839Z,101358.50
2022-12-08T07:28:21.102Z,101362.63
2022-12-08T07:31:27.617Z,101358.69
2022-12-08T07:34:31.776Z,101359.25
2022-12-08T07:37:38.553Z,101369.44
2022-12-08T07:40:43.045Z,101374.78
2022-12-08T07:43:47.786Z,101368.78
2022-12-08T07:46:52.837Z,101378.03
2022-12-08T07:49:57.288Z,101351.00
2022-12-08T07:53:01.836Z,101369.03
2022-12-08T07:56:08.461Z,101376.28
2022-12-08T07:59:13.262Z,101375.72
2022-12-08T08:02:26.920Z,101377.13
2022-12-08T08:05:31.577Z,101370.13
2022-12-08T08:08:36.034Z,101352.84
2022-12-08T08:11:40.655Z,101375.19
2022-12-08T08:14:44.989Z,101352.72
2022-12-08T08:17:52.568Z,101370.66
2022-12-08T08:20:58.043Z,101331.56
2022-12-08T08:24:02.329Z,101373.53
2022-12-08T08:27:06.899Z,101365.47
2022-12-08T08:30:19.613Z,101376.97
2022-12-08T08:33:24.789Z,101366.03
2022-12-08T08:36:29.842Z,101346.50
2022-12-08T08:39:34.174Z,101366.44
2022-12-08T08:42:38.739Z,101362.34
2022-12-08T08:45:43.028Z,101348.06
2022-12-08T08:48:47.952Z,101348.31
2022-12-08T08:51:52.404Z,101370.84
2022-12-08T08:54:57.095Z,101382.69
2022-12-08T08:58:02.757Z,101377.09
2022-12-08T09:01:07.502Z,101372.97
2022-12-08T09:04:12.164Z,101382.56
2022-12-08T09:07:17.367Z,101389.59
2022-12-08T09:10:21.635Z,101377.56
2022-12-08T09:13:26.120Z,101380.13
2022-12-08T09:16:30.871Z,101392.19
2022-12-08T09:19:37.177Z,101394.06
2022-12-08T09:22:41.832Z,101390.06
2022-12-08T09:25:47.149Z,101376.09
2022-12-08T09:28:52.017Z,101367.22
2022-12-08T09:31:58.444Z,101387.53
2022-12-08T09:35:03.231Z,101383.75
2022-12-08T09:38:07.796Z,101386.84
2022-12-08T09:41:36.461Z,101390.59
2022-12-08T09:44:58.234Z,101392.38
2022-12-08T09:48:24.779Z,101386.06
2022-12-08T09:51:36.789Z,101356.38
2022-12-08T09:54:41.492Z,101376.88
2022-12-08T09:57:47.700Z,101358.50
2022-12-08T10:00:54.111Z,101379.28
2022-12-08T10:03:59.962Z,101369.72
2022-12-08T10:07:16.932Z,101383.81
2022-12-08T10:10:36.846Z,101339.41
2022-12-08T10:14:23.739Z,101370.28
2022-12-08T10:17:36.988Z,101372.41
2022-12-08T10:20:48.227Z,101341.44
2022-12-08T10:24:03.500Z,101372.88
2022-12-08T10:27:13.407Z,101362.75
2022-12-08T10:30:20.189Z,101362.25
2022-12-08T10:33:28.638Z,101384.03
2022-12-08T10:36:53.124Z,101377.06
2022-12-08T10:40:02.996Z,101354.09
2022-12-08T10:43:16.975Z,101363.81
2022-12-08T10:46:29.429Z,101369.44
2022-12-08T10:49:37.728Z,101345.88
2022-12-08T10:52:42.924Z,101357.50
2022-12-08T10:56:07.531Z,101365.47
2022-12-08T10:59:18.651Z,101314.94
2022-12-08T11:02:23.587Z,101373.44
2022-12-08T11:05:38.523Z,101367.69
2022-12-08T11:08:57.581Z,101373.13
2022-12-08T11:12:10.298Z,101371.56
2022-12-08T11:15:19.363Z,101347.94
2022-12-08T11:18:30.897Z,101352.69
2022-12-08T11:21:38.781Z,101345.16
2022-12-08T11:24:44.531Z,101351.06
2022-12-08T11:27:54.890Z,101342.09
2022-12-08T11:31:10.374Z,101330.34
2022-12-08T11:34:24.980Z,101347.72
2022-12-08T11:37:43.888Z,101362.56
2022-12-08T11:40:49.289Z,101361.50
2022-12-08T11:44:09.464Z,101354.41
2022-12-08T11:47:55.824Z,101357.50
2022-12-08T11:51:10.709Z,101355.91
2022-12-08T11:54:33.217Z,101354.44
2022-12-08T11:57:37.624Z,101357.50
2022-12-08T12:00:44.580Z,101362.34
2022-12-08T12:04:02.418Z,101343.69
2022-12-08T12:07:27.992Z,101357.44
2022-12-08T12:10:58.407Z,101363.75
2022-12-08T12:14:15.452Z,101356.66
2022-12-08T12:17:32.526Z,101353.16
2022-12-08T12:20:51.123Z,101356.38
2022-12-08T12:24:05.690Z,101356.00
2022-12-08T12:27:34.025Z,101352.53
2022-12-08T12:31:13.331Z,101340.75
2022-12-08T12:34:34.618Z,101361.75
2022-12-08T12:37:43.266Z,101347.56
2022-12-08T12:40:47.795Z,101333.38
2022-12-08T12:44:25.300Z,101341.06
2022-12-08T12:47:57.275Z,101336.03
2022-12-08T12:51:01.728Z,101318.09
2022-12-08T12:54:22.793Z,101312.72
2022-12-08T12:57:38.657Z,101334.72
2022-12-08T13:00:43.016Z,101312.88
2022-12-08T13:04:11.360Z,101273.47
2022-12-08T13:07:27.573Z,101324.56
2022-12-08T13:10:49.551Z,101326.47
2022-12-08T13:13:59.679Z,101324.53
2022-12-08T13:17:09.424Z,101307.50
2022-12-08T13:20:24.049Z,101297.81
2022-12-08T13:23:50.785Z,101303.34
2022-12-08T13:27:07.613Z,101311.41
2022-12-08T13:30:43.414Z,101270.63
2022-12-08T13:33:48.642Z,101304.81
2022-12-08T13:36:55.738Z,101309.31
2022-12-08T13:40:06.765Z,101315.31
2022-12-08T13:43:44.634Z,101308.50
2022-12-08T13:57:51.645Z,101309.00
2022-12-08T14:01:06.731Z,101302.72
2022-12-08T14:04:42.588Z,101306.28
2022-12-08T14:07:49.526Z,101316.84
2022-12-08T14:10:59.999Z,101300.28
2022-12-08T14:14:13.038Z,101304.31
2022-12-08T14:17:23.477Z,101287.63
2022-12-08T14:20:46.351Z,101249.28
2022-12-08T14:24:03.088Z,101321.44
2022-12-08T14:27:11.212Z,101315.84
2022-12-08T14:30:15.865Z,101292.38
2022-12-08T14:33:20.712Z,101325.69
2022-12-08T14:36:25.690Z,101309.09
2022-12-08T14:39:30.012Z,101328.50
2022-12-08T14:43:09.625Z,101312.69
2022-12-08T14:46:24.323Z,101313.00
2022-12-08T14:49:36.982Z,101321.19
2022-12-08T14:52:45.730Z,101312.69
2022-12-08T14:55:50.661Z,101321.53
2022-12-08T14:59:19.305Z,101321.38
2022-12-08T15:02:32.323Z,101304.91
2022-12-08T15:05:40.239Z,101308.63
2022-12-08T15:08:57.131Z,101292.13
2022-12-08T15:12:06.371Z,101301.59
2022-12-08T15:15:10.819Z,101298.84
2022-12-08T15:18:19.600Z,101288.59
2022-12-08T15:21:32.105Z,101292.44
2022-12-08T15:24:36.656Z,101285.94
2022-12-08T15:27:49.777Z,101269.34
2022-12-08T15:30:58.033Z,101259.38
2022-12-08T15:34:02.936Z,101245.94
2022-12-08T15:37:21.277Z,101272.47
2022-12-08T15:40:28.067Z,101283.09
2022-12-08T15:43:33.571Z,101282.94
2022-12-08T15:46:37.815Z,101261.34
2022-12-08T15:49:42.744Z,101275.81
2022-12-08T15:52:47.384Z,101258.81
2022-12-08T15:59:22.183Z,101267.19
2022-12-08T16:02:34.284Z,101268.41
2022-12-08T16:06:20.493Z,101254.53
2022-12-08T16:09:18.257Z,101277.19
2022-12-08T16:16:12.475Z,101258.75
2022-12-08T16:19:16.952Z,101250.38
2022-12-08T16:26:16.748Z,101264.78
2022-12-08T16:29:21.507Z,101233.28
2022-12-08T16:32:27.067Z,101263.75
2022-12-08T16:35:32.350Z,101257.84
2022-12-08T16:38:36.654Z,101252.75
2022-12-08T16:41:59.448Z,101249.59
2022-12-08T16:45:25.084Z,101256.06
2022-12-08T16:48:29.805Z,101234.28
2022-12-08T16:51:33.907Z,101247.59
2022-12-08T16:54:38.358Z,101237.25
2022-12-08T16:57:43.775Z,101248.47
2022-12-08T17:00:48.294Z,101235.47
2022-12-08T17:04:22.383Z,101256.88
2022-12-08T17:07:17.135Z,101255.31
2022-12-08T17:10:24.683Z,101263.00
2022-12-08T17:13:28.951Z,101264.50
2022-12-08T17:16:33.355Z,101274.84
2022-12-08T17:19:37.744Z,101267.78
2022-12-08T17:22:42.415Z,101277.03
2022-12-08T17:25:46.815Z,101275.59
2022-12-08T17:29:00.697Z,101269.41
2022-12-08T17:32:06.030Z,101282.16
2022-12-08T17:35:11.272Z,101282.25
2022-12-08T17:38:15.921Z,101262.69
2022-12-08T17:41:20.105Z,101272.19
2022-12-08T17:44:24.773Z,101271.94
2022-12-08T17:47:29.083Z,101234.81
2022-12-08T17:50:33.475Z,101254.91
2022-12-08T17:53:38.064Z,101263.09
2022-12-08T17:56:42.325Z,101260.09
2022-12-08T17:59:46.833Z,101263.53
2022-12-08T18:02:51.492Z,101253.72
2022-12-08T18:05:56.103Z,101241.00
2022-12-08T18:09:02.124Z,101239.50
2022-12-08T18:12:06.702Z,101242.44
2022-12-08T18:15:16.305Z,101251.34
2022-12-08T18:18:21.096Z,101253.56
2022-12-08T18:21:25.399Z,101248.66
2022-12-08T18:24:30.276Z,101264.91
2022-12-08T18:27:39.920Z,101261.06
2022-12-08T18:30:47.352Z,101244.94
2022-12-08T18:33:53.121Z,101236.78
2022-12-08T18:36:57.531Z,101234.59
2022-12-08T18:40:02.192Z,101238.22
2022-12-08T18:43:07.321Z,101246.56
2022-12-08T18:46:14.353Z,101240.91
2022-12-08T18:49:22.398Z,101251.28
2022-12-08T18:52:32.302Z,101230.97
2022-12-08T18:55:38.975Z,101190.13
2022-12-08T18:58:43.389Z,101218.41
2022-12-08T19:01:47.600Z,101218.13
2022-12-08T19:04:52.120Z,101246.34
2022-12-08T19:07:56.772Z,101242.56
2022-12-08T19:11:01.946Z,101240.84
2022-12-08T19:14:06.661Z,101232.47
2022-12-08T19:17:10.970Z,101231.66
2022-12-08T19:20:15.944Z,101227.25
2022-12-08T19:23:20.115Z,101224.19
2022-12-08T19:26:24.383Z,101221.91
2022-12-08T19:29:28.945Z,101226.19
2022-12-08T19:32:33.239Z,101233.81
2022-12-08T19:35:37.918Z,101232.41
2022-12-08T19:39:01.284Z,101223.56
2022-12-08T19:42:32.600Z,101215.25
2022-12-08T19:45:37.590Z,101225.25
2022-12-08T19:48:42.191Z,101241.81
2022-12-08T19:51:46.451Z,101228.94
2022-12-08T19:54:51.032Z,101208.38
2022-12-08T19:57:55.691Z,101240.25
2022-12-08T20:01:00.079Z,101234.28
2022-12-08T20:04:04.687Z,101223.88
2022-12-08T20:07:09.115Z,101204.28
2022-12-08T20:10:19.976Z,101227.50
2022-12-08T20:13:42.612Z,101229.66
2022-12-08T20:16:47.276Z,101211.41
2022-12-08T20:19:51.918Z,101220.19
2022-12-08T20:22:56.027Z,101227.81
2022-12-08T20:26:00.400Z,101215.56
2022-12-08T20:29:05.201Z,101211.31
2022-12-08T20:32:09.494Z,101228.16
2022-12-08T20:35:14.107Z,101232.84
2022-12-08T20:38:18.378Z,101208.72
2022-12-08T20:41:27.267Z,101220.63
2022-12-08T20:44:31.934Z,101213.25
2022-12-08T20:47:37.973Z,101219.97
2022-12-08T20:50:42.688Z,101229.13
2022-12-08T20:53:47.665Z,101204.50
2022-12-08T20:56:52.088Z,101214.41
2022-12-08T20:59:56.710Z,101224.84
2022-12-08T21:03:03.336Z,101221.59
2022-12-08T21:06:08.385Z,101225.91
2022-12-08T21:09:12.615Z,101222.72
2022-12-08T21:12:17.303Z,101232.41
2022-12-08T21:15:22.228Z,101203.91
2022-12-08T21:18:27.047Z,101220.84
2022-12-08T21:21:31.213Z,101223.13
2022-12-08T21:24:35.752Z,101213.31
2022-12-08T21:27:40.631Z,101204.22
2022-12-08T21:30:45.328Z,101215.84
2022-12-08T21:33:50.226Z,101230.59
2022-12-08T21:36:54.742Z,101234.16
2022-12-08T21:39:59.040Z,101212.19
2022-12-08T21:43:06.973Z,101220.34
2022-12-08T21:46:22.392Z,101228.00
2022-12-08T21:49:27.196Z,101219.28
2022-12-08T21:52:31.934Z,101208.94
2022-12-08T21:55:36.578Z,101222.47
2022-12-08T21:58:41.238Z,101214.38
2022-12-08T22:01:45.950Z,101199.63
2022-12-08T22:04:50.738Z,101221.69
2022-12-08T22:07:55.194Z,101233.47
2022-12-08T22:10:59.615Z,101225.91
2022-12-08T22:14:04.688Z,101219.34
2022-12-08T22:17:10.892Z,101230.97
2022-12-08T22:20:17.296Z,101240.16
2022-12-08T22:23:22.208Z,101237.44
2022-12-08T22:26:26.775Z,101231.97
2022-12-08T22:29:31.171Z,101235.97
2022-12-08T22:32:35.617Z,101231.84
2022-12-08T22:35:40.167Z,101224.81
2022-12-08T22:38:44.801Z,101243.53
2022-12-08T22:41:49.279Z,101240.94
2022-12-08T22:44:53.358Z,101234.09
2022-12-08T22:47:57.586Z,101231.91
2022-12-08T22:51:02.574Z,101248.13
2022-12-08T22:54:07.160Z,101255.34
2022-12-08T22:57:12.082Z,101232.78
2022-12-08T23:00:16.335Z,101247.91
2022-12-08T23:03:20.769Z,101249.69
2022-12-08T23:06:27.042Z,101251.22
2022-12-08T23:09:31.884Z,101224.78
2022-12-08T23:12:36.162Z,101265.53
2022-12-08T23:15:42.092Z,101265.72
2022-12-08T23:18:47.464Z,101273.84
2022-12-08T23:21:51.683Z,101263.28
2022-12-08T23:24:56.165Z,101255.13
2022-12-08T23:28:00.771Z,101265.63
2022-12-08T23:31:09.511Z,101261.94
2022-12-08T23:34:13.940Z,101259.63
2022-12-08T23:37:18.535Z,101264.47
2022-12-08T23:40:22.901Z,101256.25
2022-12-08T23:43:27.560Z,101245.25
2022-12-08T23:46:32.033Z,101168.94
2022-12-08T23:49:36.249Z,101247.69
2022-12-08T23:52:40.749Z,101263.22
2022-12-08T23:55:45.103Z,101247.59
2022-12-08T23:58:49.649Z,101253.53
